createdAt,value
2024-04-21T00:02:16.446Z,0
2024-04-21T00:03:30.735Z,0
2024-04-21T00:04:45.028Z,0
2024-04-21T00:05:59.328Z,0
2024-04-21T00:07:13.616Z,0
2024-04-21T00:08:27.907Z,0
2024-04-21T00:09:42.201Z,0
2024-04-21T00:10:56.500Z,0
2024-04-21T00:12:09.810Z,0
2024-04-21T00:13:24.108Z,0
2024-04-21T00:14:38.395Z,0
2024-04-21T00:15:52.689Z,0
2024-04-21T00:17:06.984Z,0
2024-04-21T00:18:21.283Z,0
2024-04-21T00:19:35.570Z,0
2024-04-21T00:20:49.865Z,0
2024-04-21T00:22:04.162Z,0
2024-04-21T00:23:18.449Z,0
2024-04-21T00:24:32.753Z,0
2024-04-21T00:25:47.042Z,0
2024-04-21T00:27:01.337Z,0
2024-04-21T00:28:14.643Z,0
2024-04-21T00:29:28.942Z,0
2024-04-21T00:30:43.239Z,0
2024-04-21T00:31:57.530Z,0
2024-04-21T00:33:11.821Z,0
2024-04-21T00:34:26.117Z,0
2024-04-21T00:35:40.408Z,0
2024-04-21T00:36:54.706Z,0
2024-04-21T00:38:09.001Z,0
2024-04-21T00:39:23.294Z,0
2024-04-21T00:40:37.582Z,0
2024-04-21T00:41:51.882Z,0
2024-04-21T00:43:06.176Z,0
2024-04-21T00:44:19.488Z,0
2024-04-21T00:45:33.778Z,0
2024-04-21T00:46:48.074Z,0
2024-04-21T00:48:02.364Z,0
2024-04-21T00:49:16.655Z,0
2024-04-21T00:50:30.957Z,0
2024-04-21T00:51:45.247Z,0
2024-04-21T00:52:59.544Z,0
2024-04-21T00:54:13.837Z,0
2024-04-21T00:55:28.123Z,0
2024-04-21T00:56:42.420Z,0
2024-04-21T00:57:56.711Z,0
2024-04-21T00:59:11.005Z,0
2024-04-21T01:00:24.321Z,0
2024-04-21T01:01:38.608Z,0
2024-04-21T01:02:52.910Z,0
2024-04-21T01:04:07.203Z,0
2024-04-21T01:05:21.492Z,0
2024-04-21T01:06:35.788Z,0
2024-04-21T01:07:50.083Z,0
2024-04-21T01:09:04.373Z,0
2024-04-21T01:10:18.668Z,0
2024-04-21T01:11:32.961Z,0
2024-04-21T01:12:47.260Z,0
2024-04-21T01:14:01.552Z,0
2024-04-21T01:15:15.841Z,0
2024-04-21T01:16:29.150Z,0
2024-04-21T01:17:43.443Z,0
2024-04-21T01:18:57.745Z,0
2024-04-21T01:20:12.032Z,0
2024-04-21T01:21:26.331Z,0
2024-04-21T01:22:40.621Z,0
2024-04-21T01:23:54.916Z,0
2024-04-21T01:25:09.214Z,0
2024-04-21T01:26:23.506Z,0
2024-04-21T01:27:37.800Z,0
2024-04-21T01:28:52.089Z,0
2024-04-21T01:30:06.381Z,0
2024-04-21T01:31:20.675Z,0
2024-04-21T01:32:33.991Z,0
2024-04-21T01:33:48.286Z,0
2024-04-21T01:35:02.575Z,0
2024-04-21T01:36:16.871Z,0
2024-04-21T01:37:31.169Z,0
2024-04-21T01:38:45.456Z,0
2024-04-21T01:39:59.753Z,0
2024-04-21T01:41:14.050Z,0
2024-04-21T01:42:28.339Z,0
2024-04-21T01:43:42.632Z,0
2024-04-21T01:44:56.924Z,0
2024-04-21T01:46:11.224Z,0
2024-04-21T01:47:25.520Z,0
2024-04-21T01:48:38.825Z,0
2024-04-21T01:49:53.120Z,0
2024-04-21T01:51:07.416Z,0
2024-04-21T01:52:21.712Z,0
2024-04-21T01:53:35.999Z,0
2024-04-21T01:54:50.292Z,0
2024-04-21T01:56:04.584Z,0
2024-04-21T01:57:18.883Z,0
2024-04-21T01:58:33.176Z,0
2024-04-21T01:59:47.471Z,0
2024-04-21T02:01:01.768Z,0
2024-04-21T02:02:16.056Z,0
2024-04-21T02:03:30.355Z,0
2024-04-21T02:04:43.663Z,0
2024-04-21T02:05:57.955Z,0
2024-04-21T02:07:12.254Z,0
2024-04-21T02:08:26.548Z,0
2024-04-21T02:09:40.840Z,0
2024-04-21T02:10:55.130Z,0
2024-04-21T02:12:09.430Z,0
2024-04-21T02:13:23.716Z,0
2024-04-21T02:14:38.015Z,0
2024-04-21T02:15:52.311Z,0
2024-04-21T02:17:06.600Z,0
2024-04-21T02:18:20.892Z,0
2024-04-21T02:19:35.186Z,0
2024-04-21T02:20:48.497Z,0
2024-04-21T02:22:02.793Z,0
2024-04-21T02:23:17.084Z,0
2024-04-21T02:24:31.381Z,0
2024-04-21T02:25:45.678Z,0
2024-04-21T02:26:59.969Z,0
2024-04-21T02:28:14.264Z,0
2024-04-21T02:29:28.557Z,0
2024-04-21T02:30:42.846Z,0
2024-04-21T02:31:57.148Z,0
2024-04-21T02:33:11.441Z,0
2024-04-21T02:34:25.736Z,0
2024-04-21T02:35:40.028Z,0
2024-04-21T02:36:53.340Z,0
2024-04-21T02:38:07.634Z,0
2024-04-21T02:39:21.921Z,0
2024-04-21T02:40:36.217Z,0
2024-04-21T02:41:50.507Z,0
2024-04-21T02:43:04.808Z,0
2024-04-21T02:44:19.096Z,0
2024-04-21T02:45:33.393Z,0
2024-04-21T02:46:47.735Z,0
2024-04-21T02:48:01.983Z,0
2024-04-21T02:49:16.270Z,0
2024-04-21T02:50:30.567Z,0
2024-04-21T02:51:44.860Z,0
2024-04-21T02:52:58.174Z,0
2024-04-21T02:54:12.462Z,0
2024-04-21T02:55:26.760Z,0
2024-04-21T02:56:41.057Z,0
2024-04-21T02:57:55.353Z,0
2024-04-21T02:59:09.646Z,0
2024-04-21T03:00:23.935Z,0
2024-04-21T03:01:36.079Z,0
2024-04-21T03:02:52.530Z,0
2024-04-21T03:04:06.816Z,0
2024-04-21T03:05:21.113Z,0
2024-04-21T03:06:35.409Z,0
2024-04-21T03:07:49.703Z,0
2024-04-21T03:09:03.009Z,0
2024-04-21T03:10:17.303Z,0
2024-04-21T03:11:31.593Z,0
2024-04-21T03:12:45.896Z,0
2024-04-21T03:14:00.185Z,0
2024-04-21T03:15:14.480Z,0
2024-04-21T03:16:28.776Z,0
2024-04-21T03:17:43.069Z,0
2024-04-21T03:18:57.364Z,0
2024-04-21T03:20:11.656Z,0
2024-04-21T03:21:25.945Z,0
2024-04-21T03:22:40.242Z,0
2024-04-21T03:23:54.537Z,0
2024-04-21T03:25:07.848Z,0
2024-04-21T03:26:22.136Z,0
2024-04-21T03:27:36.435Z,0
2024-04-21T03:28:50.732Z,0
2024-04-21T03:30:05.022Z,0
2024-04-21T03:31:19.317Z,0
2024-04-21T03:32:33.609Z,0
2024-04-21T03:33:47.902Z,0
2024-04-21T03:35:02.194Z,0
2024-04-21T03:36:16.496Z,0
2024-04-21T03:37:30.782Z,0
2024-04-21T03:38:45.079Z,0
2024-04-21T03:39:59.378Z,0
2024-04-21T03:41:12.686Z,0
2024-04-21T03:42:26.924Z,1
2024-04-21T03:43:41.172Z,1
2024-04-21T03:44:55.415Z,1
2024-04-21T03:46:09.657Z,1
2024-04-21T03:47:23.953Z,0
2024-04-21T03:48:38.248Z,0
2024-04-21T03:49:52.495Z,2
2024-04-21T03:51:06.732Z,1
2024-04-21T03:52:20.990Z,1
2024-04-21T03:53:35.223Z,1
2024-04-21T03:54:49.469Z,2
2024-04-21T03:56:03.712Z,2
2024-04-21T03:57:16.973Z,2
2024-04-21T03:58:31.215Z,2
2024-04-21T03:59:45.451Z,3
2024-04-21T04:00:59.691Z,5
2024-04-21T04:02:13.937Z,4
2024-04-21T04:03:28.177Z,2
2024-04-21T04:04:41.435Z,4
2024-04-21T04:05:55.679Z,6
2024-04-21T04:07:09.916Z,6
2024-04-21T04:08:24.151Z,6
2024-04-21T04:10:52.637Z,5
2024-04-21T04:12:06.875Z,5
2024-04-21T04:13:21.111Z,7
2024-04-21T04:14:35.352Z,6
2024-04-21T04:15:49.593Z,13
2024-04-21T04:17:03.838Z,15
2024-04-21T04:18:18.078Z,13
2024-04-21T04:19:32.314Z,15
2024-04-21T04:20:45.567Z,17
2024-04-21T04:21:59.808Z,12
2024-04-21T04:23:14.051Z,17
2024-04-21T04:24:28.295Z,22
2024-04-21T04:25:42.527Z,22
2024-04-21T04:26:56.774Z,21
2024-04-21T04:28:11.009Z,22
2024-04-21T04:29:25.255Z,22
2024-04-21T04:30:39.490Z,23
2024-04-21T04:31:53.732Z,20
2024-04-21T04:33:07.972Z,21
2024-04-21T04:34:22.208Z,18
2024-04-21T04:35:36.447Z,20
2024-04-21T04:36:49.710Z,21
2024-04-21T04:38:03.949Z,19
2024-04-21T04:39:18.184Z,19
2024-04-21T04:40:32.426Z,26
2024-04-21T04:41:46.661Z,29
2024-04-21T04:43:00.907Z,28
2024-04-21T04:44:15.145Z,29
2024-04-21T04:45:29.390Z,27
2024-04-21T04:46:43.629Z,29
2024-04-21T04:47:57.861Z,34
2024-04-21T04:49:12.110Z,34
2024-04-21T04:50:26.345Z,35
2024-04-21T04:51:40.584Z,37
2024-04-21T04:52:53.845Z,44
2024-04-21T04:54:08.084Z,45
2024-04-21T04:55:22.324Z,44
2024-04-21T04:56:36.557Z,45
2024-04-21T04:57:50.798Z,43
2024-04-21T04:59:05.045Z,34
2024-04-21T05:00:19.284Z,43
2024-04-21T05:01:33.518Z,35
2024-04-21T05:02:47.765Z,46
2024-04-21T05:04:02.005Z,47
2024-04-21T05:05:16.243Z,42
2024-04-21T05:06:30.484Z,39
2024-04-21T05:07:44.720Z,40
2024-04-21T05:08:57.982Z,35
2024-04-21T05:10:12.221Z,41
2024-04-21T05:11:26.458Z,40
2024-04-21T05:12:40.702Z,40
2024-04-21T05:13:54.939Z,32
2024-04-21T05:15:09.181Z,36
2024-04-21T05:17:37.658Z,38
2024-04-21T05:18:51.895Z,34
2024-04-21T05:20:06.139Z,32
2024-04-21T05:21:20.378Z,36
2024-04-21T05:22:34.615Z,42
2024-04-21T05:23:48.857Z,38
2024-04-21T05:25:02.112Z,48
2024-04-21T05:26:16.356Z,44
2024-04-21T05:27:30.598Z,38
2024-04-21T05:28:44.830Z,39
2024-04-21T05:29:59.073Z,42
2024-04-21T05:31:13.312Z,59
2024-04-21T05:32:27.558Z,61
2024-04-21T05:33:41.798Z,71
2024-04-21T05:34:56.035Z,76
2024-04-21T05:36:10.277Z,80
2024-04-21T05:37:24.516Z,79
2024-04-21T05:38:38.753Z,88
2024-04-21T05:39:52.991Z,91
2024-04-21T05:41:06.254Z,98
2024-04-21T05:42:20.491Z,84
2024-04-21T05:43:34.732Z,80
2024-04-21T05:44:48.971Z,77
2024-04-21T05:46:03.213Z,75
2024-04-21T05:47:17.444Z,78
2024-04-21T05:48:31.687Z,88
2024-04-21T05:49:45.933Z,97
2024-04-21T05:51:00.170Z,96
2024-04-21T05:52:14.405Z,93
2024-04-21T05:53:28.646Z,108
2024-04-21T05:54:42.889Z,114
2024-04-21T05:55:57.130Z,108
2024-04-21T05:57:10.383Z,118
2024-04-21T05:58:24.621Z,134
2024-04-21T05:59:38.865Z,149
2024-04-21T06:00:53.100Z,150
2024-04-21T06:02:07.339Z,152
2024-04-21T06:03:21.577Z,168
2024-04-21T06:04:35.826Z,177
2024-04-21T06:05:50.057Z,183
2024-04-21T06:07:04.300Z,191
2024-04-21T06:08:18.539Z,197
2024-04-21T06:09:32.782Z,203
2024-04-21T06:10:47.021Z,212
2024-04-21T06:12:01.262Z,229
2024-04-21T06:13:14.520Z,259
2024-04-21T06:14:28.760Z,289
2024-04-21T06:15:42.994Z,316
2024-04-21T06:16:57.230Z,340
2024-04-21T06:18:11.476Z,380
2024-04-21T06:19:25.719Z,431
2024-04-21T06:20:39.953Z,439
2024-04-21T06:21:54.199Z,472
2024-04-21T06:23:08.439Z,478
2024-04-21T06:24:22.671Z,492
2024-04-21T06:25:36.915Z,522
2024-04-21T06:26:51.152Z,568
2024-04-21T06:28:05.392Z,523
2024-04-21T06:29:18.654Z,509
2024-04-21T06:30:32.891Z,533
2024-04-21T06:31:47.128Z,514
2024-04-21T06:33:01.374Z,578
2024-04-21T06:34:15.609Z,509
2024-04-21T06:35:29.851Z,505
2024-04-21T06:36:44.093Z,528
2024-04-21T06:37:58.329Z,594
2024-04-21T06:39:12.572Z,546
2024-04-21T06:40:26.810Z,497
2024-04-21T06:41:41.050Z,534
2024-04-21T06:42:55.293Z,603
2024-04-21T06:44:09.528Z,513
2024-04-21T06:45:22.782Z,573
2024-04-21T06:46:37.023Z,568
2024-04-21T06:47:51.268Z,571
2024-04-21T06:49:05.509Z,604
2024-04-21T06:50:19.744Z,630
2024-04-21T06:51:33.981Z,591
2024-04-21T06:52:48.222Z,737
2024-04-21T06:54:02.463Z,745
2024-04-21T06:55:16.701Z,805
2024-04-21T06:56:30.946Z,464
2024-04-21T06:57:45.185Z,1318
2024-04-21T06:58:59.424Z,891
2024-04-21T07:00:13.665Z,1383
2024-04-21T07:01:26.922Z,1116
2024-04-21T07:02:41.164Z,1016
2024-04-21T07:03:55.402Z,744
2024-04-21T07:06:23.878Z,1714
2024-04-21T07:07:38.115Z,1316
2024-04-21T07:08:52.355Z,1226
2024-04-21T07:10:06.599Z,1480
2024-04-21T07:11:20.838Z,1131
2024-04-21T07:12:35.073Z,981
2024-04-21T07:13:49.317Z,851
2024-04-21T07:15:03.554Z,494
2024-04-21T07:16:17.796Z,719
2024-04-21T07:17:31.045Z,1218
2024-04-21T07:18:45.287Z,933
2024-04-21T07:19:59.530Z,666
2024-04-21T07:21:13.765Z,883
2024-04-21T07:22:28.009Z,944
2024-04-21T07:23:42.249Z,1058
2024-04-21T07:24:56.487Z,852
2024-04-21T07:26:10.723Z,1033
2024-04-21T07:27:24.968Z,1078
2024-04-21T07:28:39.207Z,1119
2024-04-21T07:29:53.442Z,1124
2024-04-21T07:31:07.685Z,1132
2024-04-21T07:32:21.925Z,1117
2024-04-21T07:33:35.179Z,1088
2024-04-21T07:34:49.418Z,1008
2024-04-21T07:36:03.658Z,975
2024-04-21T07:37:17.897Z,964
2024-04-21T07:38:32.140Z,969
2024-04-21T07:39:46.372Z,917
2024-04-21T07:41:00.616Z,989
2024-04-21T07:42:14.855Z,895
2024-04-21T07:43:29.093Z,950
2024-04-21T07:44:43.334Z,1142
2024-04-21T07:45:57.573Z,1028
2024-04-21T07:47:11.809Z,994
2024-04-21T07:48:26.054Z,991
2024-04-21T07:49:39.304Z,980
2024-04-21T07:50:53.544Z,1003
2024-04-21T07:52:07.782Z,984
2024-04-21T07:53:22.031Z,1074
2024-04-21T07:54:36.268Z,1079
2024-04-21T07:55:50.506Z,1085
2024-04-21T07:57:04.741Z,1132
2024-04-21T07:58:18.983Z,1014
2024-04-21T07:59:33.223Z,1097
2024-04-21T08:00:47.463Z,1058
2024-04-21T08:02:01.703Z,1183
2024-04-21T08:03:15.940Z,1226
2024-04-21T08:04:30.181Z,1164
2024-04-21T08:05:43.435Z,1190
2024-04-21T08:06:57.680Z,1081
2024-04-21T08:08:11.916Z,1150
2024-04-21T08:09:26.150Z,1202
2024-04-21T08:10:40.393Z,1193
2024-04-21T08:11:54.632Z,1176
2024-04-21T08:13:07.895Z,1304
2024-04-21T08:14:22.137Z,1460
2024-04-21T08:15:36.369Z,1364
2024-04-21T08:16:50.611Z,1303
2024-04-21T08:18:04.856Z,1624
2024-04-21T08:19:19.096Z,1540
2024-04-21T08:20:33.329Z,1435
2024-04-21T08:21:47.570Z,1363
2024-04-21T08:23:01.811Z,1464
2024-04-21T08:24:16.053Z,1416
2024-04-21T08:25:30.290Z,1465
2024-04-21T08:26:44.526Z,1801
2024-04-21T08:27:58.765Z,1377
2024-04-21T08:29:12.025Z,1864
2024-04-21T08:30:26.262Z,1487
2024-04-21T08:31:40.503Z,1508
2024-04-21T08:32:54.739Z,1447
2024-04-21T08:34:08.978Z,1121
2024-04-21T08:35:23.225Z,1704
2024-04-21T08:36:37.462Z,1335
2024-04-21T08:37:51.702Z,1062
2024-04-21T08:39:05.937Z,1293
2024-04-21T08:40:20.178Z,1449
2024-04-21T08:41:34.416Z,1558
2024-04-21T08:42:48.663Z,1650
2024-04-21T08:45:17.134Z,1625
2024-04-21T08:46:30.394Z,1329
2024-04-21T08:47:44.636Z,1223
2024-04-21T08:48:58.870Z,1025
2024-04-21T08:50:13.115Z,1318
2024-04-21T08:51:27.353Z,1997
2024-04-21T08:52:41.593Z,1609
2024-04-21T08:53:55.832Z,1621
2024-04-21T08:55:10.067Z,1523
2024-04-21T08:56:24.312Z,1518
2024-04-21T08:57:38.552Z,1530
2024-04-21T08:58:52.784Z,1357
2024-04-21T09:00:07.031Z,1484
2024-04-21T09:01:21.267Z,1402
2024-04-21T09:02:34.521Z,1355
2024-04-21T09:03:48.762Z,1246
2024-04-21T09:05:03.000Z,1268
2024-04-21T09:06:17.239Z,1226
2024-04-21T09:07:31.485Z,1157
2024-04-21T09:08:45.723Z,1304
2024-04-21T09:09:59.961Z,1447
2024-04-21T09:11:14.200Z,1359
2024-04-21T09:12:28.444Z,1414
2024-04-21T09:13:42.679Z,1631
2024-04-21T09:14:56.923Z,1614
2024-04-21T09:16:11.159Z,1628
2024-04-21T09:17:25.395Z,1505
2024-04-21T09:18:38.651Z,1640
2024-04-21T09:19:52.895Z,1903
2024-04-21T09:21:07.129Z,1979
2024-04-21T09:22:21.371Z,1978
2024-04-21T09:23:35.610Z,1739
2024-04-21T09:24:49.855Z,1547
2024-04-21T09:26:04.089Z,1604
2024-04-21T09:27:18.336Z,1682
2024-04-21T09:28:32.569Z,1375
2024-04-21T09:29:46.808Z,1048
2024-04-21T09:31:01.053Z,1050
2024-04-21T09:32:15.287Z,988
2024-04-21T09:33:29.527Z,872
2024-04-21T09:34:42.786Z,798
2024-04-21T09:35:57.022Z,759
2024-04-21T09:37:11.269Z,642
2024-04-21T09:38:25.508Z,697
2024-04-21T09:39:39.742Z,784
2024-04-21T09:40:53.979Z,1042
2024-04-21T09:42:08.227Z,1162
2024-04-21T09:43:22.459Z,1107
2024-04-21T09:44:36.698Z,1040
2024-04-21T09:45:50.937Z,1019
2024-04-21T09:47:05.185Z,874
2024-04-21T09:48:19.420Z,1024
2024-04-21T09:49:33.656Z,1064
2024-04-21T09:50:46.912Z,947
2024-04-21T09:52:01.156Z,1179
2024-04-21T09:53:15.393Z,1515
2024-04-21T09:54:29.635Z,1559
2024-04-21T09:55:43.875Z,1294
2024-04-21T09:56:58.114Z,1387
2024-04-21T09:58:12.349Z,1465
2024-04-21T09:59:26.593Z,1515
2024-04-21T10:00:40.835Z,1278
2024-04-21T10:01:55.068Z,1125
2024-04-21T10:03:09.311Z,1244
2024-04-21T10:04:23.547Z,1210
2024-04-21T10:05:37.790Z,1092
2024-04-21T10:06:51.043Z,1056
2024-04-21T10:08:05.287Z,1124
2024-04-21T10:09:19.528Z,1202
2024-04-21T10:10:33.763Z,1326
2024-04-21T10:11:48.000Z,1041
2024-04-21T10:13:02.284Z,1067
2024-04-21T10:14:16.485Z,1085
2024-04-21T10:15:30.726Z,1145
2024-04-21T10:16:44.961Z,1309
2024-04-21T10:17:59.202Z,1132
2024-04-21T10:19:13.441Z,1312
2024-04-21T10:20:27.682Z,1590
2024-04-21T10:21:41.918Z,1270
2024-04-21T10:22:55.173Z,1400
2024-04-21T10:24:09.419Z,1620
2024-04-21T10:25:23.655Z,2014
2024-04-21T10:26:37.889Z,1632
2024-04-21T10:27:52.138Z,2131
2024-04-21T10:29:06.372Z,1825
2024-04-21T10:30:20.610Z,1813
2024-04-21T10:31:34.856Z,1439
2024-04-21T10:32:49.088Z,1504
2024-04-21T10:34:03.335Z,2072
2024-04-21T10:35:17.567Z,1419
2024-04-21T10:36:31.809Z,1273
2024-04-21T10:37:46.055Z,917
2024-04-21T10:38:59.309Z,1513
2024-04-21T10:40:13.544Z,1443
2024-04-21T10:41:27.791Z,1479
2024-04-21T10:42:42.023Z,1497
2024-04-21T10:43:56.269Z,2278
2024-04-21T10:45:10.502Z,1645
2024-04-21T10:46:24.741Z,2282
2024-04-21T10:47:38.984Z,2088
2024-04-21T10:50:07.465Z,2068
2024-04-21T10:51:21.700Z,2024
2024-04-21T10:52:35.944Z,1810
2024-04-21T10:53:50.181Z,1644
2024-04-21T10:55:03.440Z,1385
2024-04-21T10:56:17.674Z,1451
2024-04-21T10:57:31.926Z,1491
2024-04-21T10:58:46.153Z,674
2024-04-21T11:00:00.400Z,883
2024-04-21T11:01:14.639Z,2586
2024-04-21T11:02:28.872Z,1868
2024-04-21T11:03:43.113Z,2122
2024-04-21T11:04:57.355Z,2021
2024-04-21T11:06:11.594Z,2064
2024-04-21T11:07:25.833Z,2105
2024-04-21T11:08:40.067Z,2173
2024-04-21T11:09:54.313Z,654
2024-04-21T11:11:07.568Z,1497
2024-04-21T11:12:21.802Z,2096
2024-04-21T11:13:36.043Z,2310
2024-04-21T11:14:50.282Z,2780
2024-04-21T11:16:04.526Z,2255
2024-04-21T11:17:18.766Z,1920
2024-04-21T11:18:32.997Z,4232
2024-04-21T11:19:47.246Z,2566
2024-04-21T11:21:01.479Z,2280
2024-04-21T11:22:15.722Z,858
2024-04-21T11:23:29.958Z,2029
2024-04-21T11:24:44.197Z,1784
2024-04-21T11:25:58.434Z,4356
2024-04-21T11:27:11.691Z,2316
2024-04-21T11:28:25.937Z,2274
2024-04-21T11:29:40.175Z,2047
2024-04-21T11:30:54.408Z,1916
2024-04-21T11:32:08.647Z,803
2024-04-21T11:33:22.888Z,3363
2024-04-21T11:34:37.127Z,1872
2024-04-21T11:35:51.367Z,1968
2024-04-21T11:37:05.607Z,836
2024-04-21T11:38:19.847Z,2123
2024-04-21T11:39:34.084Z,3079
2024-04-21T11:40:48.330Z,3360
2024-04-21T11:42:02.566Z,1567
2024-04-21T11:43:15.816Z,2236
2024-04-21T11:44:30.055Z,1683
2024-04-21T11:45:44.294Z,2835
2024-04-21T11:46:58.541Z,1951
2024-04-21T11:48:12.775Z,2017
2024-04-21T11:49:27.014Z,922
2024-04-21T11:50:41.254Z,4558
2024-04-21T11:51:55.488Z,943
2024-04-21T11:53:09.735Z,4492
2024-04-21T11:54:23.973Z,1910
2024-04-21T11:55:38.215Z,3149
2024-04-21T11:56:52.452Z,3149
2024-04-21T11:58:06.689Z,2599
2024-04-21T11:59:19.942Z,2284
2024-04-21T12:00:34.187Z,1113
2024-04-21T12:01:48.426Z,923
2024-04-21T12:03:02.663Z,4113
2024-04-21T12:04:16.903Z,2643
2024-04-21T12:05:31.138Z,2390
2024-04-21T12:06:45.377Z,2405
2024-04-21T12:07:59.623Z,1072
2024-04-21T12:09:13.884Z,3388
2024-04-21T12:10:28.097Z,3572
2024-04-21T12:11:42.335Z,2465
2024-04-21T12:12:56.576Z,4614
2024-04-21T12:14:10.817Z,2483
2024-04-21T12:15:24.071Z,2239
2024-04-21T12:16:38.317Z,2527
2024-04-21T12:17:52.556Z,2189
2024-04-21T12:19:06.793Z,2069
2024-04-21T12:20:21.031Z,1743
2024-04-21T12:21:34.290Z,1313
2024-04-21T12:22:48.532Z,1696
2024-04-21T12:24:02.775Z,1271
2024-04-21T12:25:17.014Z,1296
2024-04-21T12:26:31.254Z,837
2024-04-21T12:27:45.493Z,2527
2024-04-21T12:28:59.725Z,2965
2024-04-21T12:30:13.967Z,3234
2024-04-21T12:31:28.210Z,4960
2024-04-21T12:32:42.449Z,2516
2024-04-21T12:33:56.685Z,1074
2024-04-21T12:35:10.923Z,3226
2024-04-21T12:36:25.168Z,3373
2024-04-21T12:37:38.425Z,3274
2024-04-21T12:38:52.662Z,4915
2024-04-21T12:40:06.897Z,2312
2024-04-21T12:41:21.134Z,1007
2024-04-21T12:42:35.381Z,4791
2024-04-21T12:43:49.620Z,2366
2024-04-21T12:45:03.855Z,943
2024-04-21T12:46:18.096Z,3227
2024-04-21T12:47:32.336Z,4528
2024-04-21T12:48:46.572Z,2215
2024-04-21T12:50:00.809Z,1890
2024-04-21T12:51:15.046Z,1958
2024-04-21T12:52:29.290Z,2069
2024-04-21T12:53:42.544Z,2072
2024-04-21T12:54:56.781Z,1737
2024-04-21T12:56:11.021Z,782
2024-04-21T12:57:25.263Z,1826
2024-04-21T12:58:39.502Z,2398
2024-04-21T12:59:53.738Z,1496
2024-04-21T13:01:07.982Z,2204
2024-04-21T13:02:22.214Z,1417
2024-04-21T13:03:36.453Z,1729
2024-04-21T13:04:50.693Z,865
2024-04-21T13:07:19.199Z,2638
2024-04-21T13:08:33.418Z,3002
2024-04-21T13:09:46.672Z,3276
2024-04-21T13:11:00.908Z,3349
2024-04-21T13:12:15.151Z,3897
2024-04-21T13:13:29.388Z,2787
2024-04-21T13:14:43.621Z,2025
2024-04-21T13:15:57.865Z,4822
2024-04-21T13:17:12.106Z,897
2024-04-21T13:18:26.338Z,3346
2024-04-21T13:19:40.576Z,3234
2024-04-21T13:20:54.823Z,2448
2024-04-21T13:22:09.061Z,1397
2024-04-21T13:23:23.295Z,3030
2024-04-21T13:24:37.537Z,2146
2024-04-21T13:25:50.797Z,2184
2024-04-21T13:27:05.033Z,2123
2024-04-21T13:28:19.269Z,1897
2024-04-21T13:29:33.510Z,1644
2024-04-21T13:30:47.745Z,1423
2024-04-21T13:32:01.994Z,1024
2024-04-21T13:33:16.227Z,1816
2024-04-21T13:35:44.710Z,1156
2024-04-21T13:36:58.943Z,669
2024-04-21T13:38:13.185Z,3048
2024-04-21T13:39:27.427Z,1332
2024-04-21T13:40:41.659Z,642
2024-04-21T13:41:54.915Z,3512
2024-04-21T13:43:09.161Z,775
2024-04-21T13:44:23.399Z,2243
2024-04-21T13:45:37.631Z,3816
2024-04-21T13:46:51.879Z,1280
2024-04-21T13:48:06.113Z,4692
2024-04-21T13:49:20.348Z,2112
2024-04-21T13:50:34.591Z,2704
2024-04-21T13:51:48.833Z,889
2024-04-21T13:53:03.068Z,1473
2024-04-21T13:54:17.312Z,2851
2024-04-21T13:55:31.549Z,4686
2024-04-21T13:56:45.788Z,1681
2024-04-21T13:57:59.045Z,2626
2024-04-21T13:59:13.285Z,2218
2024-04-21T14:00:27.517Z,2035
2024-04-21T14:01:41.755Z,2119
2024-04-21T14:02:55.994Z,1925
2024-04-21T14:04:10.234Z,2206
2024-04-21T14:05:24.475Z,927
2024-04-21T14:06:38.711Z,3630
2024-04-21T14:07:52.957Z,4012
2024-04-21T14:09:07.194Z,2054
2024-04-21T14:10:21.436Z,2387
2024-04-21T14:11:35.668Z,2185
2024-04-21T14:12:49.908Z,1591
2024-04-21T14:14:03.166Z,1389
2024-04-21T14:15:17.403Z,1269
2024-04-21T14:16:31.645Z,2941
2024-04-21T14:17:45.883Z,3793
2024-04-21T14:19:00.118Z,1316
2024-04-21T14:20:14.368Z,3884
2024-04-21T14:21:28.599Z,4144
2024-04-21T14:22:42.843Z,2397
2024-04-21T14:23:57.075Z,1385
2024-04-21T14:25:11.320Z,2933
2024-04-21T14:26:25.551Z,854
2024-04-21T14:27:39.795Z,2263
2024-04-21T14:28:54.038Z,2604
2024-04-21T14:30:07.284Z,2618
2024-04-21T14:31:21.531Z,3446
2024-04-21T14:32:35.770Z,1820
2024-04-21T14:33:50.007Z,1599
2024-04-21T14:35:04.244Z,1690
2024-04-21T14:36:18.485Z,1668
2024-04-21T14:37:32.726Z,1461
2024-04-21T14:38:46.963Z,1235
2024-04-21T14:40:01.203Z,1068
2024-04-21T14:41:15.439Z,968
2024-04-21T14:42:29.674Z,942
2024-04-21T14:43:43.919Z,931
2024-04-21T14:44:58.160Z,925
2024-04-21T14:46:11.411Z,871
2024-04-21T14:47:25.649Z,1290
2024-04-21T14:48:39.889Z,656
2024-04-21T14:49:54.129Z,1930
2024-04-21T14:51:08.368Z,1155
2024-04-21T14:52:22.610Z,1506
2024-04-21T14:53:36.843Z,1888
2024-04-21T14:54:51.091Z,1252
2024-04-21T14:56:05.323Z,1203
2024-04-21T14:57:19.570Z,1192
2024-04-21T14:58:33.805Z,793
2024-04-21T14:59:48.042Z,844
2024-04-21T15:01:02.282Z,1677
2024-04-21T15:02:15.538Z,1044
2024-04-21T15:03:29.780Z,1285
2024-04-21T15:04:44.017Z,1161
2024-04-21T15:05:58.253Z,1254
2024-04-21T15:07:12.495Z,1286
2024-04-21T15:08:26.741Z,1317
2024-04-21T15:09:40.979Z,1356
2024-04-21T15:10:55.214Z,1370
2024-04-21T15:12:09.452Z,1351
2024-04-21T15:13:23.695Z,1296
2024-04-21T15:14:37.932Z,1241
2024-04-21T15:15:52.175Z,1229
2024-04-21T15:17:06.409Z,1186
2024-04-21T15:18:19.669Z,1201
2024-04-21T15:19:33.906Z,1225
2024-04-21T15:20:48.144Z,1305
2024-04-21T15:22:02.383Z,1218
2024-04-21T15:23:16.623Z,1108
2024-04-21T15:24:30.862Z,1000
2024-04-21T15:25:45.106Z,876
2024-04-21T15:26:59.343Z,806
2024-04-21T15:28:13.580Z,756
2024-04-21T15:29:27.815Z,767
2024-04-21T15:30:42.056Z,751
2024-04-21T15:31:56.298Z,748
2024-04-21T15:33:10.537Z,759
2024-04-21T15:34:23.792Z,404
2024-04-21T15:35:38.036Z,605
2024-04-21T15:36:52.276Z,1384
2024-04-21T15:38:06.515Z,907
2024-04-21T15:39:20.752Z,2331
2024-04-21T15:40:34.998Z,596
2024-04-21T15:41:49.225Z,1298
2024-04-21T15:43:03.469Z,1384
2024-04-21T15:44:17.708Z,1277
2024-04-21T15:45:31.947Z,1560
2024-04-21T15:46:46.183Z,1075
2024-04-21T15:48:00.425Z,1301
2024-04-21T15:49:14.659Z,1281
2024-04-21T15:50:27.915Z,1202
2024-04-21T15:51:42.160Z,1270
2024-04-21T15:52:56.402Z,2278
2024-04-21T15:54:10.642Z,1136
2024-04-21T15:55:24.877Z,1108
2024-04-21T15:56:39.112Z,1064
2024-04-21T15:57:53.353Z,956
2024-04-21T15:59:07.596Z,875
2024-04-21T16:00:21.836Z,855
2024-04-21T16:01:36.074Z,827
2024-04-21T16:02:50.309Z,789
2024-04-21T16:04:04.556Z,735
2024-04-21T16:05:18.796Z,720
2024-04-21T16:06:32.048Z,703
2024-04-21T16:07:46.287Z,672
2024-04-21T16:09:00.530Z,670
2024-04-21T16:10:14.769Z,775
2024-04-21T16:11:29.006Z,708
2024-04-21T16:12:43.247Z,621
2024-04-21T16:13:57.484Z,333
2024-04-21T16:15:11.726Z,645
2024-04-21T16:16:25.960Z,770
2024-04-21T16:17:40.202Z,1462
2024-04-21T16:18:54.435Z,388
2024-04-21T16:20:08.677Z,717
2024-04-21T16:22:37.160Z,625
2024-04-21T16:23:50.415Z,673
2024-04-21T16:25:04.655Z,623
2024-04-21T16:26:18.891Z,668
2024-04-21T16:27:33.131Z,581
2024-04-21T16:28:47.369Z,569
2024-04-21T16:30:01.605Z,536
2024-04-21T16:31:14.872Z,433
2024-04-21T16:32:29.106Z,655
2024-04-21T16:33:43.348Z,684
2024-04-21T16:34:57.586Z,370
2024-04-21T16:36:11.822Z,402
2024-04-21T16:37:26.066Z,397
2024-04-21T16:38:40.303Z,417
2024-04-21T16:39:54.540Z,1184
2024-04-21T16:41:08.784Z,617
2024-04-21T16:42:23.018Z,640
2024-04-21T16:43:37.259Z,642
2024-04-21T16:44:51.500Z,619
2024-04-21T16:46:05.744Z,616
2024-04-21T16:47:18.996Z,616
2024-04-21T16:48:33.234Z,597
2024-04-21T16:49:47.473Z,594
2024-04-21T16:51:01.714Z,579
2024-04-21T16:52:15.954Z,551
2024-04-21T16:53:30.188Z,538
2024-04-21T16:54:44.430Z,528
2024-04-21T16:55:58.670Z,516
2024-04-21T16:57:12.906Z,519
2024-04-21T16:58:27.147Z,505
2024-04-21T16:59:41.387Z,509
2024-04-21T17:00:55.628Z,512
2024-04-21T17:02:09.872Z,501
2024-04-21T17:03:23.125Z,509
2024-04-21T17:04:37.359Z,516
2024-04-21T17:05:51.599Z,476
2024-04-21T17:07:05.836Z,490
2024-04-21T17:08:20.079Z,474
2024-04-21T17:09:34.317Z,444
2024-04-21T17:10:48.554Z,416
2024-04-21T17:12:02.795Z,414
2024-04-21T17:13:17.036Z,416
2024-04-21T17:14:31.275Z,389
2024-04-21T17:15:45.520Z,381
2024-04-21T17:16:59.759Z,373
2024-04-21T17:18:13.992Z,384